createdAt,value
2018-05-18T00:00:30.354Z,10.40
2018-05-18T00:03:32.818Z,10.40
2018-05-18T00:06:35.284Z,10.40
2018-05-18T00:09:38.491Z,10.30
2018-05-18T00:12:40.957Z,10.30
2018-05-18T00:15:43.402Z,10.30
2018-05-18T00:18:45.865Z,10.20
2018-05-18T00:21:48.334Z,10.20
2018-05-18T00:24:50.783Z,10.20
2018-05-18T00:27:53.259Z,10.20
2018-05-18T00:30:55.697Z,10.20
2018-05-18T00:33:58.929Z,10.10
2018-05-18T00:37:01.387Z,10.10
2018-05-18T00:40:03.873Z,10.10
2018-05-18T00:43:06.293Z,10.10
2018-05-18T00:46:08.751Z,10.10
2018-05-18T00:49:11.214Z,10.20
2018-05-18T00:52:13.669Z,10.10
2018-05-18T00:55:27.951Z,10.10
2018-05-18T00:58:30.407Z,10.10
2018-05-18T01:01:32.855Z,10.20
2018-05-18T01:04:35.304Z,10.20
2018-05-18T01:07:37.770Z,10.20
2018-05-18T01:10:40.217Z,10.20
2018-05-18T01:13:42.673Z,10.20
2018-05-18T01:16:45.885Z,10.20
2018-05-18T01:19:48.342Z,10.10
2018-05-18T01:22:51.566Z,10.20
2018-05-18T01:25:54.009Z,10.20
2018-05-18T01:28:57.233Z,10.20
2018-05-18T01:31:59.682Z,10.20
2018-05-18T01:35:08.921Z,10.20
2018-05-18T01:38:12.141Z,10.20
2018-05-18T01:41:14.640Z,10.20
2018-05-18T01:44:17.097Z,10.30
2018-05-18T01:47:19.545Z,10.30
2018-05-18T01:50:22.765Z,10.10
2018-05-18T01:53:25.226Z,10.10
2018-05-18T01:56:27.676Z,10.10
2018-05-18T01:59:30.139Z,10.20
2018-05-18T02:02:32.585Z,10.10
2018-05-18T02:05:35.049Z,10.10
2018-05-18T02:08:37.513Z,10.10
2018-05-18T02:11:39.970Z,10.10
2018-05-18T02:14:42.433Z,10.10
2018-05-18T02:17:44.877Z,10.10
2018-05-18T02:20:47.338Z,10.20
2018-05-18T02:23:49.814Z,10.10
2018-05-18T02:26:52.258Z,10.10
2018-05-18T02:29:54.728Z,10.10
2018-05-18T02:32:57.962Z,10.10
2018-05-18T02:36:00.413Z,10.10
2018-05-18T02:39:03.634Z,10.00
2018-05-18T02:42:06.093Z,10.00
2018-05-18T02:45:08.541Z,10.00
2018-05-18T02:48:11.770Z,10.00
2018-05-18T02:51:14.220Z,10.00
2018-05-18T02:54:17.446Z,10.00
2018-05-18T02:57:19.897Z,10.00
2018-05-18T03:00:23.120Z,10.00
2018-05-18T03:03:25.584Z,10.00
2018-05-18T03:06:28.029Z,10.10
2018-05-18T03:09:30.489Z,10.10
2018-05-18T03:12:32.939Z,10.00
2018-05-18T03:15:35.393Z,10.00
2018-05-18T03:18:37.866Z,10.00
2018-05-18T03:21:40.490Z,10.00
2018-05-18T03:24:42.951Z,9.90
2018-05-18T03:27:45.398Z,9.90
2018-05-18T03:30:47.853Z,9.90
2018-05-18T03:33:51.077Z,9.90
2018-05-18T03:36:53.521Z,9.90
2018-05-18T03:39:56.741Z,9.80
2018-05-18T03:42:59.185Z,9.80
2018-05-18T03:46:01.634Z,9.80
2018-05-18T03:49:04.102Z,9.80
2018-05-18T03:52:06.545Z,9.70
2018-05-18T03:55:09.021Z,9.70
2018-05-18T03:58:11.466Z,9.70
2018-05-18T04:01:25.742Z,9.80
2018-05-18T04:04:40.005Z,9.70
2018-05-18T04:07:48.475Z,9.80
2018-05-18T04:10:50.908Z,9.80
2018-05-18T04:13:53.345Z,9.80
2018-05-18T04:16:56.574Z,9.70
2018-05-18T04:19:59.032Z,9.80
2018-05-18T04:23:02.240Z,9.90
2018-05-18T04:26:04.703Z,9.80
2018-05-18T04:29:07.918Z,9.90
2018-05-18T04:32:10.374Z,9.90
2018-05-18T04:35:13.607Z,10.00
2018-05-18T04:38:16.050Z,10.00
2018-05-18T04:41:18.515Z,10.00
2018-05-18T04:44:21.729Z,9.80
2018-05-18T04:47:24.205Z,9.80
2018-05-18T04:50:26.653Z,9.90
2018-05-18T04:53:29.099Z,9.90
2018-05-18T04:56:31.561Z,9.90
2018-05-18T04:59:34.019Z,9.90
2018-05-18T05:02:36.480Z,9.80
2018-05-18T05:05:39.701Z,9.80
2018-05-18T05:08:42.163Z,9.80
2018-05-18T05:11:44.621Z,9.80
2018-05-18T05:14:47.839Z,9.80
2018-05-18T05:17:50.299Z,9.80
2018-05-18T05:20:52.766Z,9.80
2018-05-18T05:23:55.204Z,9.70
2018-05-18T05:26:57.659Z,9.70
2018-05-18T05:30:00.105Z,9.70
2018-05-18T05:33:02.561Z,9.80
2018-05-18T05:36:05.017Z,9.70
2018-05-18T05:39:07.470Z,9.80
2018-05-18T05:42:09.929Z,9.80
2018-05-18T05:45:12.378Z,9.90
2018-05-18T05:48:15.606Z,9.80
2018-05-18T05:51:18.066Z,9.80
2018-05-18T05:54:20.514Z,9.80
2018-05-18T05:57:22.974Z,9.80
2018-05-18T06:00:25.424Z,9.80
2018-05-18T06:03:27.873Z,9.80
2018-05-18T06:06:30.333Z,9.90
2018-05-18T06:09:33.549Z,9.80
2018-05-18T06:12:36.002Z,9.90
2018-05-18T06:15:38.456Z,9.80
2018-05-18T06:18:41.171Z,9.80
2018-05-18T06:21:44.382Z,9.80
2018-05-18T06:24:46.825Z,9.80
2018-05-18T06:27:50.053Z,9.70
2018-05-18T06:30:52.496Z,9.80
2018-05-18T06:33:55.825Z,9.80
2018-05-18T06:36:58.285Z,9.80
2018-05-18T06:40:00.730Z,9.90
2018-05-18T06:43:03.190Z,9.80
2018-05-18T06:46:05.631Z,9.80
2018-05-18T06:49:08.093Z,9.80
2018-05-18T06:52:10.550Z,9.90
2018-05-18T06:55:13.765Z,10.10
2018-05-18T06:58:16.218Z,10.00
2018-05-18T07:01:33.182Z,10.00
2018-05-18T07:04:35.625Z,10.00
2018-05-18T07:07:38.093Z,9.90
2018-05-18T07:10:41.309Z,9.90
2018-05-18T07:13:43.758Z,9.90
2018-05-18T07:16:46.986Z,10.00
2018-05-18T07:19:49.442Z,10.00
2018-05-18T07:22:54.640Z,10.00
2018-05-18T07:25:57.031Z,10.00
2018-05-18T07:28:59.485Z,9.90
2018-05-18T07:32:12.718Z,9.90
2018-05-18T07:35:20.913Z,10.00
2018-05-18T07:38:26.509Z,10.10
2018-05-18T07:41:32.669Z,10.20
2018-05-18T07:44:43.418Z,10.20
2018-05-18T07:47:45.875Z,10.10
2018-05-18T07:50:50.258Z,10.10
2018-05-18T07:57:26.526Z,10.00
2018-05-18T08:00:40.449Z,10.10
2018-05-18T08:03:42.919Z,10.10
2018-05-18T08:06:51.154Z,10.20
2018-05-18T08:09:57.224Z,10.20
2018-05-18T08:13:16.658Z,10.30
2018-05-18T08:16:29.902Z,10.20
2018-05-18T08:19:36.095Z,10.20
2018-05-18T08:33:08.022Z,10.40
2018-05-18T08:36:34.110Z,10.60
2018-05-18T08:43:17.287Z,10.80
2018-05-18T08:46:30.517Z,10.80
2018-05-18T08:53:19.065Z,11.10
2018-05-18T09:00:03.329Z,11.30
2018-05-18T09:03:10.166Z,11.30
2018-05-18T09:06:14.584Z,11.20
2018-05-18T09:09:41.806Z,11.10
2018-05-18T09:13:01.354Z,11.00
2018-05-18T09:16:22.669Z,11.00
2018-05-18T09:19:38.736Z,10.90
2018-05-18T09:22:47.349Z,11.10
2018-05-18T09:26:08.718Z,11.10
2018-05-18T09:29:13.112Z,11.20
2018-05-18T09:32:34.542Z,11.00
2018-05-18T09:35:37.011Z,11.00
2018-05-18T09:38:40.273Z,11.20
2018-05-18T09:41:44.720Z,11.20
2018-05-18T09:44:59.859Z,11.20
2018-05-18T09:48:08.985Z,11.10
2018-05-18T09:51:13.341Z,11.10
2018-05-18T09:54:17.694Z,11.20
2018-05-18T09:57:26.277Z,11.20
2018-05-18T10:00:32.853Z,11.30
2018-05-18T10:03:39.314Z,11.20
2018-05-18T10:06:42.725Z,11.30
2018-05-18T10:09:46.945Z,11.20
2018-05-18T10:12:54.330Z,11.10
2018-05-18T10:16:15.803Z,11.20
2018-05-18T10:19:36.914Z,11.10
2018-05-18T10:22:59.275Z,11.10
2018-05-18T10:26:01.737Z,11.10
2018-05-18T10:29:09.506Z,11.20
2018-05-18T10:32:18.625Z,11.30
2018-05-18T10:35:22.851Z,11.40
2018-05-18T10:38:26.057Z,11.50
2018-05-18T10:41:28.522Z,11.50
2018-05-18T10:44:38.421Z,11.60
2018-05-18T10:47:58.997Z,11.60
2018-05-18T10:51:01.458Z,11.70
2018-05-18T10:57:49.536Z,11.90
2018-05-18T11:00:56.189Z,11.80
2018-05-18T11:07:32.165Z,11.70
2018-05-18T11:10:34.629Z,11.80
2018-05-18T11:13:40.906Z,11.80
2018-05-18T11:16:45.333Z,11.70
2018-05-18T11:19:52.930Z,11.60
2018-05-18T11:23:04.385Z,11.60
2018-05-18T11:26:10.682Z,11.60
2018-05-18T11:29:14.889Z,11.70
2018-05-18T11:32:19.013Z,11.80
2018-05-18T11:35:27.812Z,11.80
2018-05-18T11:38:43.563Z,11.80
2018-05-18T11:41:47.037Z,11.80
2018-05-18T11:44:53.596Z,11.70
2018-05-18T11:47:58.064Z,11.70
2018-05-18T11:51:19.790Z,11.70
2018-05-18T11:54:27.445Z,11.80
2018-05-18T11:57:34.129Z,11.70
2018-05-18T12:00:38.345Z,11.70
2018-05-18T12:04:00.210Z,11.70
2018-05-18T12:07:19.710Z,11.70
2018-05-18T12:10:25.189Z,11.80
2018-05-18T12:13:29.625Z,12.10
2018-05-18T12:16:34.048Z,12.10
2018-05-18T12:19:42.658Z,12.00
2018-05-18T12:22:46.066Z,12.00
2018-05-18T12:26:13.713Z,12.00
2018-05-18T12:29:17.127Z,12.00
2018-05-18T12:32:22.994Z,11.90
2018-05-18T12:35:39.525Z,12.00
2018-05-18T12:42:23.425Z,12.30
2018-05-18T12:45:33.474Z,12.30
2018-05-18T12:48:35.941Z,12.60
2018-05-18T12:51:38.411Z,12.40
2018-05-18T12:54:40.875Z,12.30
2018-05-18T12:58:04.482Z,12.50
2018-05-18T13:01:14.352Z,12.50
2018-05-18T13:04:17.766Z,12.60
2018-05-18T13:11:03.606Z,12.50
2018-05-18T13:14:19.818Z,12.50
2018-05-18T13:17:28.880Z,12.50
2018-05-18T13:20:43.523Z,12.50
2018-05-18T13:23:51.777Z,12.50
2018-05-18T13:27:07.310Z,12.50
2018-05-18T13:30:09.758Z,12.40
2018-05-18T13:33:18.472Z,12.30
2018-05-18T13:36:22.886Z,12.20
2018-05-18T13:39:43.632Z,12.20
2018-05-18T13:42:51.974Z,12.40
2018-05-18T13:46:08.750Z,12.60
2018-05-18T13:49:11.213Z,12.50
2018-05-18T13:55:45.423Z,12.50
2018-05-18T13:58:52.213Z,12.50
2018-05-18T14:01:56.629Z,12.40
2018-05-18T14:05:03.109Z,12.30
2018-05-18T14:08:07.326Z,12.20
2018-05-18T14:11:11.526Z,12.20
2018-05-18T14:14:22.402Z,12.20
2018-05-18T14:17:28.578Z,12.20
2018-05-18T14:20:34.022Z,12.10
2018-05-18T14:23:51.597Z,12.30
2018-05-18T14:27:10.858Z,12.50
2018-05-18T14:30:23.008Z,12.60
2018-05-18T14:33:31.346Z,12.60
2018-05-18T14:36:36.478Z,12.60
2018-05-18T14:39:56.110Z,12.60
2018-05-18T14:43:06.202Z,12.70
2018-05-18T14:46:10.633Z,12.70
2018-05-18T14:49:19.953Z,12.60
2018-05-18T14:52:22.410Z,12.50
2018-05-18T14:55:25.869Z,12.50
2018-05-18T14:58:43.230Z,12.40
2018-05-18T15:01:49.030Z,12.40
2018-05-18T15:04:55.006Z,12.50
2018-05-18T15:08:03.717Z,12.70
2018-05-18T15:11:22.422Z,12.80
2018-05-18T15:17:57.326Z,12.70
2018-05-18T15:21:10.336Z,12.80
2018-05-18T15:24:16.737Z,12.80
2018-05-18T15:27:19.953Z,13.00
2018-05-18T15:30:25.568Z,13.00
2018-05-18T15:33:28.046Z,12.90
2018-05-18T15:36:48.582Z,12.80
2018-05-18T15:39:51.038Z,12.80
2018-05-18T15:42:54.251Z,12.70
2018-05-18T15:45:56.717Z,12.70
2018-05-18T15:48:59.179Z,12.80
2018-05-18T15:52:02.402Z,12.90
2018-05-18T15:55:04.866Z,12.90
2018-05-18T15:58:07.322Z,13.00
2018-05-18T16:01:10.554Z,12.80
2018-05-18T16:04:13.099Z,12.80
2018-05-18T16:07:15.465Z,12.70
2018-05-18T16:10:18.713Z,12.80
2018-05-18T16:13:21.179Z,12.80
2018-05-18T16:16:23.650Z,12.90
2018-05-18T16:19:26.105Z,13.00
2018-05-18T16:22:29.318Z,13.30
2018-05-18T16:25:31.778Z,13.30
2018-05-18T16:28:34.234Z,13.50
2018-05-18T16:31:36.702Z,13.70
2018-05-18T16:34:39.166Z,13.70
2018-05-18T16:37:43.606Z,13.70
2018-05-18T16:40:46.075Z,13.80
2018-05-18T16:43:48.510Z,13.80
2018-05-18T16:46:51.028Z,13.70
2018-05-18T16:49:53.439Z,13.80
2018-05-18T16:52:56.649Z,13.90
2018-05-18T16:55:59.125Z,13.90
2018-05-18T16:59:01.574Z,13.70
2018-05-18T17:02:04.806Z,13.30
2018-05-18T17:05:07.270Z,13.20
2018-05-18T17:08:09.717Z,13.10
2018-05-18T17:11:12.953Z,13.10
2018-05-18T17:14:15.411Z,13.10
2018-05-18T17:17:17.869Z,13.10
2018-05-18T17:20:21.159Z,13.00
2018-05-18T17:23:23.550Z,13.00
2018-05-18T17:26:26.782Z,12.50
2018-05-18T17:29:29.230Z,12.50
2018-05-18T17:32:31.690Z,12.40
2018-05-18T17:39:23.486Z,12.20
2018-05-18T17:42:27.009Z,12.20
2018-05-18T17:45:29.406Z,12.30
2018-05-18T17:48:31.849Z,12.30
2018-05-18T17:51:34.308Z,12.40
2018-05-18T17:54:36.771Z,12.30
2018-05-18T17:57:39.225Z,12.30
2018-05-18T18:00:42.471Z,12.20
2018-05-18T18:03:44.904Z,12.20
2018-05-18T18:06:47.366Z,12.20
2018-05-18T18:09:49.813Z,12.20
2018-05-18T18:12:52.281Z,12.20
2018-05-18T18:15:54.746Z,12.20
2018-05-18T18:18:57.202Z,12.20
2018-05-18T18:22:00.474Z,12.20
2018-05-18T18:25:03.697Z,12.20
2018-05-18T18:28:06.158Z,12.20
2018-05-18T18:31:08.626Z,12.20
2018-05-18T18:34:11.847Z,12.10
2018-05-18T18:37:14.301Z,12.10
2018-05-18T18:40:17.522Z,12.00
2018-05-18T18:43:19.989Z,12.00
2018-05-18T18:46:22.454Z,12.00
2018-05-18T18:49:24.903Z,11.90
2018-05-18T18:52:27.361Z,11.80
2018-05-18T18:55:29.817Z,11.80
2018-05-18T18:58:32.284Z,11.70
2018-05-18T19:01:34.750Z,11.70
2018-05-18T19:04:37.199Z,11.60
2018-05-18T19:07:40.440Z,11.50
2018-05-18T19:10:42.881Z,11.50
2018-05-18T19:13:45.340Z,11.40
2018-05-18T19:16:47.802Z,11.40
2018-05-18T19:19:50.262Z,11.40
2018-05-18T19:22:52.729Z,11.30
2018-05-18T19:25:55.183Z,11.30
2018-05-18T19:28:57.666Z,11.20
2018-05-18T19:32:00.138Z,11.20
2018-05-18T19:35:02.596Z,11.10
2018-05-18T19:38:05.072Z,11.10
2018-05-18T19:41:08.336Z,11.00
2018-05-18T19:44:10.830Z,11.00
2018-05-18T19:47:14.096Z,11.00
2018-05-18T19:50:16.578Z,10.90
2018-05-18T19:53:19.059Z,11.00
2018-05-18T19:56:21.561Z,10.90
2018-05-18T19:59:24.798Z,11.00
2018-05-18T20:02:27.284Z,11.00
2018-05-18T20:05:29.754Z,11.00
2018-05-18T20:08:32.238Z,10.90
2018-05-18T20:11:34.728Z,10.90
2018-05-18T20:14:37.190Z,11.00
2018-05-18T20:17:39.679Z,10.90
2018-05-18T20:20:42.139Z,10.90
2018-05-18T20:23:44.642Z,10.90
2018-05-18T20:26:47.109Z,10.90
2018-05-18T20:29:49.575Z,10.80
2018-05-18T20:32:52.835Z,10.80
2018-05-18T20:35:55.521Z,10.80
2018-05-18T20:38:58.011Z,10.80
2018-05-18T20:42:00.486Z,10.80
2018-05-18T20:45:03.937Z,10.90
2018-05-18T20:48:06.370Z,10.90
2018-05-18T20:51:08.821Z,10.90
2018-05-18T20:54:12.050Z,10.90
2018-05-18T20:57:14.510Z,10.90
2018-05-18T21:00:16.965Z,10.90
2018-05-18T21:03:20.206Z,11.00
2018-05-18T21:06:22.658Z,10.90
2018-05-18T21:09:25.128Z,10.90
2018-05-18T21:12:27.585Z,10.90
2018-05-18T21:15:30.807Z,10.90
2018-05-18T21:18:33.272Z,10.90
2018-05-18T21:21:35.709Z,10.90
2018-05-18T21:24:38.173Z,10.90
2018-05-18T21:27:40.633Z,10.90
2018-05-18T21:30:43.086Z,10.90
2018-05-18T21:33:45.541Z,10.90
2018-05-18T21:36:48.762Z,10.90
2018-05-18T21:39:51.228Z,10.90
2018-05-18T21:42:53.685Z,10.90
2018-05-18T21:45:56.902Z,10.90
2018-05-18T21:48:59.365Z,10.80
2018-05-18T21:52:02.594Z,10.80
2018-05-18T21:55:05.055Z,10.80
2018-05-18T21:58:07.515Z,10.80
2018-05-18T22:01:10.730Z,10.80
2018-05-18T22:04:13.201Z,10.70
2018-05-18T22:07:15.650Z,10.80
2018-05-18T22:10:18.869Z,10.70
2018-05-18T22:13:21.326Z,10.70
2018-05-18T22:16:24.544Z,10.70
2018-05-18T22:19:27.010Z,10.70
2018-05-18T22:22:29.457Z,10.70
2018-05-18T22:25:31.919Z,10.80
2018-05-18T22:28:34.369Z,10.70
2018-05-18T22:31:36.822Z,10.70
2018-05-18T22:34:39.295Z,10.70
2018-05-18T22:37:41.745Z,10.70
2018-05-18T22:40:45.038Z,10.60
2018-05-18T22:43:47.503Z,10.60
2018-05-18T22:46:49.949Z,10.70
2018-05-18T22:49:53.173Z,10.70
2018-05-18T22:52:55.627Z,10.70
2018-05-18T22:55:58.093Z,10.70
2018-05-18T22:59:00.550Z,10.70
2018-05-18T23:02:03.002Z,10.80
2018-05-18T23:05:06.225Z,10.80
2018-05-18T23:08:08.679Z,10.80
2018-05-18T23:11:11.902Z,10.80
2018-05-18T23:14:14.370Z,10.80
2018-05-18T23:17:16.813Z,10.80
2018-05-18T23:20:20.049Z,10.90
2018-05-18T23:23:22.488Z,10.90
2018-05-18T23:26:25.714Z,10.90
2018-05-18T23:29:28.184Z,10.90
2018-05-18T23:32:30.629Z,10.90
2018-05-18T23:35:33.089Z,10.90
2018-05-18T23:38:35.546Z,10.90
2018-05-18T23:41:38.012Z,10.90
2018-05-18T23:44:40.469Z,10.90
2018-05-18T23:47:42.916Z,10.80
2018-05-18T23:50:46.147Z,10.80
2018-05-18T23:53:48.595Z,10.80
2018-05-18T23:56:51.822Z,10.80
2018-05-18T23:59:54.266Z,10.80
